Airfield :
LOGIN :

Register | Disclaimer

   EN    FR    IT 

 










Legend :    VFR   Marginal VFR   IFR   Intensive IFR   Very Intensive IFR
Visi :
Ceiling :
>= 8 km
>= 3000ft
5 to 8 km
1000 to 3000 ft
1500m to 5 km
500 to 1000 ft
800 to 1500m
200 to 500 ft
< 800m
< 200 ft
Symbols :   Thunderstorms  Fog  Heavy snow  Heavy precipitations  Wind > 20 kt
SIGMETs :     Misc.  Thunderstorms  Icing  Turbulence  Mountain Waves  Volcanic Ashes







- Airport Elevation : 726 ft
- IATA code : DIJ
- Download approach charts


LFSD - Dijon

CURRENT METAR :
  • 222130Z AUTO VRB02KT CAVOK 15/13 Q1015

EXPIRED METARs :
  • 222100Z AUTO VRB02KT 9999 ///TCU 15/13 Q1015
  • 222030Z AUTO VRB02KT 9999 ///TCU 15/13 Q1015
  • 222000Z AUTO 07003KT 9999 FEW046/// SCT080/// BKN160/// ///TCU 15/13 Q1015
  • 221930Z AUTO 07004KT 030V100 9999 SCT036/// BKN049/// BKN056/// ///CB 16/13 Q1014
  • 221900Z AUTO 09007KT 050V110 9999 VCTS BKN037/// BKN047/// BKN056/// ///CB 16/14 Q1014

Expired Forecast.
No reported NOTAMs for that airfield.
1 SIGMET reported for the Reims FIR (LFEE) :
 
Embedded thunderstorms
LFEE SIGMET 2 VALID 222050/222200 LFPW
LFEE REIMS FIR/UIR EMBD TS OBS S OF N4700 AND W OF E00530 TOP FL320 MOV E 10KT NC=



MET'MAP, your aeronautical weather chart ! - Copyright ORBIFLY December 2007 - Disclaimer

ORBIFLY MET'MAP TEAM :

Programming & Development : Alexandra Zaïnal
Concept & Development : Baudouin d'Aumeries
Co-Development & Prog : Marc-Olivier Méhu
Technical & hardware support : Manuel Goepfert

Contact : metmap@orbifly.com




SOURCES & CREDITS :

   NOAA